Littleriver, California
Current Conditions -  °F | °C
As of 11:56 AM on Friday 24 Oct 2014 (Local Time) from KUKI Reporting Station
Clear Clear  
Wind Chill: 67°   Ceiling: Unl
Heat Index: 67°   Visibility: 10mi
Dew Point: 54°   Wind: 12mph
Humidity: 63%   Direction: 140°SE
Pressure: 29.93"   Gusts: 17mph
Location:  39.26°N, 123.77°W
Report Text: KUKI 241856Z AUTO 14010G15KT 10SM CLR 19/12 A2993 RMK AO2 SLP130 T01940122
Loading
Personal Weather Stations






























Interactive Weather Map
Tropical Storm Tracking
New forecast layout! Learn more

10-Day Weather Forecast

Advertisements
Track Severe Weather on mobile